Wesson, MS (39191)

2:08 PM CDT on October 20, 2014 (GMT -0500)
Brookhaven | Change Station
CLOSE
Current Station
Airport
Location: Brookhaven,
Elevation: 489 ft
Nearby Weather Stations

Elev 489 ft 31.61 °N, 90.41 °W | Updated 13 minutes ago

Clear
Clear
73 °F
Feels Like 73 °F
N
7
Wind Variable Wind from NNW

Today
High -- | Low -- °F
--% Chance of Precip.
Yesterday
High -- | Low -- °F
Precip. -- in
7:08 AM 6:23 PM
Waning Crescent, 9% visible
Pressure 30.06 in
Visibility 9.0 miles
Clouds Clear
Dew Point 48 °F
Humidity 41%
Rainfall 0.00 in
Snow Depth Not available.
UV 6 out of 12
Pollen 3.60 out of 12
Air Quality Not available.
Flu Activity No Activity
METAR K1R7 201855Z AUTO 33006KT 9SM CLR 23/09 A3006 RMK AO2

More Conditions Fewer Conditions

Pressure 30.06 in
Visibility 9.0 miles
Clouds Clear
Dew Point 48 °F
Humidity 41%
Rainfall 0.00 in
Snow Depth Not available.
UV 6 out of 12
Pollen 3.60 out of 12
Air Quality Not available.
Flu Activity No Activity
METAR K1R7 201855Z AUTO 33006KT 9SM CLR 23/09 A3006 RMK AO2

More Conditions Fewer Conditions

10-Day Weather Forecast

Almanac

Astronomy

Oct. 20, 2014 Rise Set
Actual Time 7:08 AM CDT 6:23 PM CDT
Civil Twilight 6:43 AM CDT 6:48 PM CDT
Nautical Twilight 6:15 AM CDT 7:16 PM CDT
Astronomical Twilight 5:47 AM CDT 7:45 PM CDT
Moon 4:08 AM CDT 4:36 PM CDT
Length of Visible Light 12h 04m
Length of Day
11h 15m
Waning Crescent, 9% of the Moon is Illuminated
Today
Waning Crescent
Oct 23
New
Oct 30
First Quarter
Nov 6
Full
Nov 14
Last Quarter

Today's Extremes

State Highs State Lows

Community

WunderPhotos

Upload Photos

1,763,466 photos uploaded!

Nearby

Snow Depth

Station Depth Elevation
No new snow has been reported.

Earthquake Activity

City Distance Mag. Time & Date
No recent earthquake activity has been reported nearby.
Minimum magnitude displayed is 2.5.

Coastal Water Temperatures

Place Temperature
No Stations Reporting

Nearby Weather Stations